Terminal Aerodrome Forecast
Issued by NWS Tampa Bay Area, FL

Home | Current Version | Previous Version | Text Only | Print | Product List | Glossary On
Versions: 1 2 3 4 5 6 7 8 9 10 11 12 13 14 15 16 17
000
FTUS42 KTBW 192300 RRA
TAFSRQ
TAF
KSRQ 192342Z 2000/2024 VRB03KT P6SM BKN250
      TEMPO 2002/2006 3SM BR
     FM200900 VRB03KT 6SM BR BKN250
     FM201400 14006KT P6SM FEW120 BKN250
     FM201800 25007KT P6SM FEW035 SCT120 BKN250=

USA.gov is the U.S. government's official web portal to all federal, state and local government web resources and services.